Tiempo atmosférico en la estación meteorológica de Estepona, Málaga (15 m.)

Fecha
DESCASC
Temp. máxima en grados centígrados (hora)
DESCASC
Temp. mínima en grados centígrados (hora)
DESCASC
Temp. media en grados centígrados
DESCASC
Racha de viento máxima en m/sg (hora)
DESCASC
Velocidad máxima media en intervalos de 10 minutos(hora)
DESCASC
Precipitaciones diarias en mm
DESCASC
Precipitaciones de 00:00 a 06:00 en mm
DESCASC
Precipitaciones de 06:00 a 12:00 en mm
DESCASC
Precipitaciones de 12:00 a 18:00 en mm
DESCASC
Precipitaciones de 18:00 a 24:00 en mm
DESCASC
23-11-2017 20.9 (13:50) 10.5 (07:50) 15.7 2.5 (12:00) 1.39 (05:00) 0 0 0 0 0
22-11-2017 21 (13:10) 10.5 (04:30) 15.8 3.61 (16:00) 2.22 (16:00) 0 0 0 0 0
21-11-2017 21.5 (14:00) 11 (04:40) 16.3 3.61 (02:10) 1.39 (01:40) 0 0 0 0 0
20-11-2017 20.9 (13:40) 13.7 (23:50) 17.3 5.83 (14:10) 3.89 (11:00) 0 0 0 0 0
19-11-2017 19.8 (12:10) 14 (00:00) 16.9 10 (11:40) 5.83 (11:40) 0 0 0 0 0
18-11-2017 20 (14:00) 12.8 (00:00) 16.4 5.83 (10:50) 4.17 (11:20) 0 0 0 0 0
17-11-2017 20.4 (14:10) 12.7 (00:00) 16.5 6.11 (11:30) 3.61 (11:20) 0 0 0 0 0
16-11-2017 20.8 (14:10) 12.2 (00:00) 16.5 4.17 (23:10) 2.22 (23:59) 0 0 0 0 0
15-11-2017 19.1 (13:30) 13.7 (00:00) 16.4 13.33 (03:00) 8.61 (03:10) 0 0 0 0 0
14-11-2017 21.2 (13:10) 11.1 (00:00) 16.2 8.06 (21:40) 4.72 (21:40) 0 0 0 0 0
13-11-2017 23.5 (13:40) 12.9 (00:00) 18.2 14.72 (16:10) 7.5 (16:10) 0 0 0 0 0
12-11-2017 21.7 (13:50) 12.7 (00:00) 17.2 4.72 (23:00) 2.78 (23:00) 0 0 0 0 0
11-11-2017 21.2 (13:40) 10.4 (00:00) 15.8 4.44 (02:40) 2.78 (13:30) 0 0 0 0 0
10-11-2017 21.5 (13:30) 11.1 (00:00) 16.3 5.83 (11:50) 2.78 (11:30) 0 0 0 0 0
09-11-2017 20.4 (11:40) 11.8 (00:00) 16.1 10 (14:10) 6.67 (14:20) 0 0 0 0 0
08-11-2017 22.2 (13:50) 12 (00:00) 17.1 2.78 (19:00) 1.67 (18:50) 0 0 0 0 0
07-11-2017 22.5 (13:50) 13.7 (00:00) 18.1 3.89 (11:20) 2.22 (11:10) 0 0 0 0 0
06-11-2017 21.4 (13:50) 12.7 (00:00) 17 11.11 (11:50) 7.22 (12:50) 0.2 0.2 0 0 0
05-11-2017 25.7 (14:00) 14.9 (00:00) 20.3 9.17 (14:40) 4.72 (12:10) 0.6 0.2 0.2 0.2 0
04-11-2017 22.3 (15:40) 16.4 (00:00) 19.3 12.22 (16:10) 5.83 (16:40) 1.2 0.2 0.2 0.8 0
03-11-2017 22.7 (14:40) 17.1 (00:00) 19.9 8.33 (21:20) 3.61 (21:10) 0.2 0 0 0 0.2
02-11-2017 22.9 (14:00) 18.6 (03:50) 20.8 9.17 (10:10) 5.56 (10:10) 0 0 0 0 0
01-11-2017 22.8 (13:30) 18.2 (00:00) 20.5 9.72 (10:20) 5.83 (11:30) 0 0 0 0 0
31-10-2017 23.2 (14:00) 16.8 (00:00) 20 8.61 (11:00) 5.28 (15:30) 0 0 0 0 0
30-10-2017 24.2 (13:30) 15.2 (00:00) 19.7 4.72 (21:50) 3.06 (10:30) 0 0 0 0 0
29-10-2017 23.6 (14:10) 16.8 (00:00) 20.2 7.5 (10:50) 4.72 (10:50) 0 0 0 0 0
28-10-2017 22 (15:20) 13.3 (00:00) 17.7 8.61 (13:40) 5 (13:40) 0 0 0 0 0
27-10-2017 24.4 (14:20) 16.4 (00:00) 20.4 7.22 (11:30) 4.72 (11:30) 0 0 0 0 0
26-10-2017 25.6 (14:20) 16.2 (00:00) 20.9 9.17 (16:00) 5 (11:30) 0 0 0 0 0
25-10-2017 23.3 (15:40) 17.4 (00:00) 20.3 7.22 (11:40) 5 (12:20) 0 0 0 0 0

Gráficas

Temp. máximas Temp. mínimas Temp. medias Precipitaciones Rachas de viento máximas Velocidades máximas media en intervalos de 10 minutos

Datos horarios

Fecha y hora oficial Temperatura (ºC) Velocidad del viento (km/h) Dirección del viento Racha (km/h) Dirección de racha Precipitación (mm) Presión (hPa) Tendencia (hPa) Humedad (%)
2017-11-23 23:00:00 13.5 2 Noroeste 6 Noroeste 0 -- -- 82
2017-11-23 22:00:00 14.5 3 Noroeste 6 Norte 0 -- -- 84
2017-11-23 21:00:00 15.1 4 Noroeste 6 Noroeste 0 -- -- 83
2017-11-23 20:00:00 15 2 Noroeste 5 Noroeste 0 -- -- 82
2017-11-23 19:00:00 15.3 0 Calma 3 Sudeste 0 -- -- 80
2017-11-23 18:00:00 16.6 0 Calma 6 Este 0 -- -- 77
2017-11-23 17:00:00 17.7 5 Este 9 Este 0 -- -- 75
2017-11-23 16:00:00 18.1 3 Sudeste 8 Sudeste 0 -- -- 71
2017-11-23 15:00:00 18.9 4 Sur 9 Sudeste 0 -- -- 65
2017-11-23 14:00:00 20.7 4 Sur 8 Sudeste 0 -- -- 58
2017-11-23 13:00:00 20.1 4 Sur 7 Sudeste 0 -- -- 57
2017-11-23 12:00:00 19.2 4 Sudeste 9 Sudeste 0 -- -- 61
2017-11-23 11:00:00 17.2 2 Sudoeste 5 Sudoeste 0 -- -- 70
2017-11-23 10:00:00 14.9 3 Sudoeste 5 Sur 0 -- -- 81
2017-11-23 09:00:00 12 0 Calma 6 Noroeste 0 -- -- 83
2017-11-23 08:00:00 10.7 5 Noroeste 7 Norte 0 -- -- 84
2017-11-23 07:00:00 11.1 0 Calma 3 Oeste 0 -- -- 83
2017-11-23 06:00:00 11.6 0 Calma 6 Noroeste 0 -- -- 81
2017-11-23 05:00:00 12.1 5 Noroeste 8 Noroeste 0 -- -- 82
2017-11-23 04:00:00 11.3 2 Noroeste 5 Norte 0 -- -- 78
2017-11-23 03:00:00 12.1 4 Norte 6 Norte 0 -- -- 78
2017-11-23 02:00:00 11.3 2 Norte 6 Nordeste 0 -- -- 80
2017-11-23 01:00:00 12.1 3 Noroeste 7 Norte 0 -- -- 79
2017-11-23 00:00:00 11.8 0 Calma 6 Norte 0 -- -- 82
2017-11-22 23:00:00 12.2 3 Norte 6 Nordeste 0 -- -- 82
2017-11-22 22:00:00 13.1 4 Norte 7 Norte 0 -- -- 82
2017-11-22 21:00:00 13.5 3 Noroeste 6 Norte 0 -- -- 82
2017-11-22 20:00:00 14.3 4 Noroeste 7 Oeste 0 -- -- 81
2017-11-22 19:00:00 14.8 3 Oeste 6 Sudoeste 0 -- -- 78
2017-11-22 18:00:00 16.3 4 Sudoeste 7 Sudoeste 0 -- -- 72
2017-11-22 17:00:00 17.8 6 Sudoeste 11 Sudoeste 0 -- -- 69
2017-11-22 16:00:00 18.4 8 Sudoeste 13 Sudoeste 0 -- -- 66
2017-11-22 15:00:00 18.7 4 Sur 9 Sudeste 0 -- -- 65
2017-11-22 14:00:00 20.7 4 Sur 11 Sur 0 -- -- 58
2017-11-22 13:00:00 20.7 5 Sur 12 Sudoeste 0 -- -- 58
2017-11-22 12:00:00 19.6 4 Sur 8 Sudoeste 0 -- -- 63
2017-11-22 11:00:00 18.1 5 Sudoeste 7 Sudoeste 0 -- -- 68
2017-11-22 10:00:00 15.4 3 Nordeste 8 Nordeste 0 -- -- 83
2017-11-22 09:00:00 13 3 Noroeste 7 Norte 0 -- -- 84
2017-11-22 08:00:00 12.4 5 Noroeste 8 Noroeste 0 -- -- 84
2017-11-22 07:00:00 12.4 3 Noroeste 7 Norte 0 -- -- 83
2017-11-22 06:00:00 12.7 4 Noroeste 10 Oeste 0 -- -- 82
2017-11-22 05:00:00 12.3 5 Noroeste 7 Noroeste 0 -- -- 81
2017-11-22 04:00:00 10.7 3 Noroeste 6 Noroeste 0 -- -- 78
2017-11-22 03:00:00 12 2 Oeste 8 Nordeste 0 -- -- 78
2017-11-22 02:00:00 12.2 2 Noroeste 7 Noroeste 0 -- -- 78
2017-11-22 01:00:00 12 2 Noroeste 6 Noroeste 0 -- -- 76
2017-11-22 00:00:00 12.7 0 Calma 6 Norte 0 -- -- 76
2017-11-21 23:00:00 13.1 3 Noroeste 6 Oeste 0 -- -- 76
2017-11-21 22:00:00 13.7 4 Norte 8 Noroeste 0 -- -- 74
2017-11-21 21:00:00 14.3 4 Norte 7 Norte 0 -- -- 74
2017-11-21 20:00:00 14.3 4 Noroeste 6 Norte 0 -- -- 76
2017-11-21 19:00:00 14.4 2 Norte 4 Este 0 -- -- 74
2017-11-21 18:00:00 16.1 3 Sudeste 6 Sudeste 0 -- -- 69
2017-11-21 17:00:00 17.3 3 Sudeste 8 Sudeste 0 -- -- 68
2017-11-21 16:00:00 17.9 4 Sudeste 9 Sudeste 0 -- -- 69
2017-11-21 15:00:00 19.2 4 Sur 9 Sudoeste 0 -- -- 63
2017-11-21 14:00:00 21.3 4 Sur 9 Sur 0 -- -- 55
2017-11-21 13:00:00 20.5 4 Sur 11 Sur 0 -- -- 57
2017-11-21 12:00:00 20 5 Sudeste 8 Sudeste 0 -- -- 60
2017-11-21 11:00:00 18.5 2 Sudoeste 7 Sudeste 0 -- -- 67
2017-11-21 10:00:00 16.2 3 Sudoeste 7 Sur 0 -- -- 73
2017-11-21 09:00:00 13.1 2 Noroeste 8 Norte 0 -- -- 77
2017-11-21 08:00:00 11.6 4 Noroeste 8 Noroeste 0 -- -- 82
2017-11-21 07:00:00 11.3 0 Calma 7 Norte 0 -- -- 82
2017-11-21 06:00:00 12.3 4 Noroeste 6 Noroeste 0 -- -- 81
2017-11-21 05:00:00 11.2 2 Oeste 5 Noroeste 0 -- -- 77
2017-11-21 04:00:00 11.2 2 Oeste 4 Sudoeste 0 -- -- 74
2017-11-21 03:00:00 12.2 0 Calma 13 Nordeste 0 -- -- 71
2017-11-21 02:00:00 13.2 4 Nordeste 13 Nordeste 0 -- -- 73
2017-11-21 01:00:00 13.5 3 Norte 9 Nordeste 0 -- -- 75
2017-11-21 00:00:00 13.7 4 Nordeste 11 Nordeste 0 -- -- 77
2017-11-20 23:00:00 14.1 3 Norte 11 Nordeste 0 -- -- 76
2017-11-20 22:00:00 14.6 6 Nordeste 15 Nordeste 0 -- -- 76
2017-11-20 21:00:00 14.4 8 Nordeste 14 Nordeste 0 -- -- 77
2017-11-20 20:00:00 14.9 5 Nordeste 12 Nordeste 0 -- -- 79
2017-11-20 19:00:00 15.6 5 Nordeste 15 Este 0 -- -- 78
2017-11-20 18:00:00 16.8 9 Este 14 Este 0 -- -- 75
2017-11-20 17:00:00 17.8 10 Este 17 Este 0 -- -- 71
2017-11-20 16:00:00 18.4 10 Este 17 Este 0 -- -- 67
2017-11-20 15:00:00 19.3 12 Este 21 Este 0 -- -- 64
2017-11-20 14:00:00 20.6 14 Este 19 Nordeste 0 -- -- 59
2017-11-20 13:00:00 19.9 14 Este 21 Este 0 -- -- 57
2017-11-20 12:00:00 19.7 13 Este 20 Este 0 -- -- 60
2017-11-20 11:00:00 19.4 14 Este 20 Este 0 -- -- 62
2017-11-20 10:00:00 17.8 7 Nordeste 13 Nordeste 0 -- -- 67
2017-11-20 09:00:00 14.7 6 Nordeste 11 Nordeste 0 -- -- 72
2017-11-20 08:00:00 14.1 5 Nordeste 15 Nordeste 0 -- -- 73
2017-11-20 07:00:00 14.2 7 Nordeste 14 Nordeste 0 -- -- 72
2017-11-20 06:00:00 14.3 6 Nordeste 16 Nordeste 0 -- -- 70
2017-11-20 05:00:00 14.6 8 Nordeste 18 Nordeste 0 -- -- 70
2017-11-20 04:00:00 14.9 9 Nordeste 21 Nordeste 0 -- -- 71
2017-11-20 03:00:00 15 9 Nordeste 19 Nordeste 0 -- -- 72
2017-11-20 02:00:00 15 9 Nordeste 18 Nordeste 0 -- -- 69
2017-11-20 01:00:00 14.9 9 Nordeste 17 Nordeste 0 -- -- 69
2017-11-20 00:00:00 15.1 8 Nordeste 17 Nordeste 0 -- -- 71
2017-11-19 23:00:00 15 9 Nordeste 17 Nordeste 0 -- -- 71
2017-11-19 22:00:00 15.1 8 Nordeste 17 Nordeste 0 -- -- 71
2017-11-19 21:00:00 15.1 8 Nordeste 18 Nordeste 0 -- -- 73
2017-11-19 20:00:00 15.4 8 Nordeste 19 Nordeste 0 -- -- 74
2017-11-19 19:00:00 15.6 8 Nordeste 21 Nordeste 0 -- -- 75
2017-11-19 18:00:00 16.7 10 Nordeste 27 Este 0 -- -- 74
2017-11-19 17:00:00 17.5 18 Este 27 Este 0 -- -- 71
2017-11-19 16:00:00 18.3 16 Este 26 Este 0 -- -- 67
2017-11-19 15:00:00 18.8 18 Este 35 Este 0 -- -- 61
2017-11-19 14:00:00 19.7 19 Este 31 Este 0 -- -- 57
2017-11-19 13:00:00 19.7 19 Este 30 Este 0 -- -- 58
2017-11-19 12:00:00 19.6 19 Este 36 Este 0 -- -- 57
2017-11-19 11:00:00 18.8 15 Nordeste 28 Este 0 -- -- 59
2017-11-19 10:00:00 17.8 9 Nordeste 22 Este 0 -- -- 62
2017-11-19 09:00:00 15.1 9 Nordeste 19 Nordeste 0 -- -- 69
2017-11-19 08:00:00 14.2 8 Nordeste -- -- -- -- -- 69
2017-11-19 07:00:00 14.2 7 Nordeste 19 Nordeste 0 -- -- 67
2017-11-19 06:00:00 14.1 8 Nordeste 20 Nordeste 0 -- -- 68
2017-11-19 05:00:00 14.1 10 Nordeste 19 Nordeste 0 -- -- 71
2017-11-19 04:00:00 14.3 10 Nordeste 22 Nordeste 0 -- -- 74
2017-11-19 03:00:00 14.2 9 Nordeste 18 Nordeste 0 -- -- 76
2017-11-19 02:00:00 14 8 Nordeste 18 Nordeste 0 -- -- 77
2017-11-19 01:00:00 14.3 9 Nordeste 17 Nordeste 0 -- -- 79
2017-11-19 00:00:00 14.5 7 Nordeste 17 Nordeste 0 -- -- 80
2017-11-18 23:00:00 14.8 8 Nordeste 19 Nordeste 0 -- -- 79
2017-11-18 22:00:00 15 8 Nordeste 16 Nordeste 0 -- -- 78
2017-11-18 21:00:00 14.7 6 Nordeste 13 Nordeste 0 -- -- 76
2017-11-18 20:00:00 14.8 6 Nordeste 13 Nordeste 0 -- -- 77
2017-11-18 19:00:00 15.4 6 Nordeste 21 Este 0 -- -- 75
2017-11-18 18:00:00 16.5 14 Este 21 Este 0 -- -- 72
2017-11-18 17:00:00 17.2 11 Este 21 Este 0 -- -- 70
2017-11-18 16:00:00 17.6 13 Este 21 Nordeste 0 -- -- 68
2017-11-18 15:00:00 18.3 13 Este 20 Este 0 -- -- 63
2017-11-18 14:00:00 19.9 12 Este 19 Este 0 -- -- 57
2017-11-18 13:00:00 19.4 12 Este 20 Este 0 -- -- 58
2017-11-18 12:00:00 19 13 Este 21 Este 0 -- -- 58
2017-11-18 11:00:00 18.7 13 Este 21 Este 0 -- -- 58
2017-11-18 10:00:00 16.7 9 Nordeste 17 Norte 0 -- -- 70
2017-11-18 09:00:00 13.8 8 Nordeste 15 Nordeste 0 -- -- 78
2017-11-18 08:00:00 12.8 3 Norte 12 Nordeste 0 -- -- 78
2017-11-18 07:00:00 12.9 4 Nordeste 12 Nordeste 0 -- -- 77
2017-11-18 06:00:00 13.1 3 Norte 10 Nordeste 0 -- -- 77
2017-11-18 05:00:00 13.1 2 Noroeste 10 Este 0 -- -- 77
2017-11-18 04:00:00 13.4 4 Nordeste 14 Nordeste 0 -- -- 77
2017-11-18 03:00:00 13.5 3 Norte 14 Nordeste 0 -- -- 75
2017-11-18 02:00:00 13.3 6 Nordeste 14 Nordeste 0 -- -- 73
2017-11-18 01:00:00 13.7 8 Nordeste 15 Nordeste 0 -- -- 77
2017-11-18 00:00:00 13.9 8 Nordeste 14 Nordeste 0 -- -- 77
2017-11-17 23:00:00 13.6 7 Nordeste 11 Nordeste 0 -- -- 79
2017-11-17 22:00:00 13.9 4 Nordeste 13 Nordeste 0 -- -- 78
2017-11-17 21:00:00 14.2 2 Norte 7 Nordeste 0 -- -- 78
2017-11-17 20:00:00 14.7 3 Norte 10 Nordeste 0 -- -- 77
2017-11-17 19:00:00 15.2 4 Nordeste 13 Nordeste 0 -- -- 75
2017-11-17 18:00:00 16.4 9 Este 14 Este 0 -- -- 72
2017-11-17 17:00:00 17.4 9 Este 17 Este 0 -- -- 69
2017-11-17 16:00:00 18 10 Este 20 Este 0 -- -- 67
2017-11-17 15:00:00 19.1 10 Este 17 Este 0 -- -- 62
2017-11-17 14:00:00 20.3 10 Este 19 Este 0 -- -- 58
2017-11-17 13:00:00 20.1 10 Este 19 Este 0 -- -- 58
2017-11-17 12:00:00 19 11 Este 22 Este 0 -- -- 60
2017-11-17 11:00:00 18.8 12 Este 19 Nordeste 0 -- -- 60
2017-11-17 10:00:00 17.1 8 Nordeste 18 Este 0 -- -- 67
2017-11-17 09:00:00 13.9 8 Nordeste 15 Nordeste 0 -- -- 74
2017-11-17 08:00:00 12.7 3 Norte 9 Nordeste 0 -- -- 76
2017-11-17 07:00:00 12.7 3 Norte 15 Nordeste 0 -- -- 77
2017-11-17 06:00:00 13 8 Nordeste 16 Nordeste 0 -- -- 77
2017-11-17 05:00:00 13.1 7 Nordeste 17 Nordeste 0 -- -- 78
2017-11-17 04:00:00 13.4 9 Nordeste 17 Nordeste 0 -- -- 79
2017-11-17 03:00:00 13.5 8 Nordeste 15 Nordeste 0 -- -- 79
2017-11-17 02:00:00 13.6 3 Norte 10 Nordeste 0 -- -- 79
2017-11-17 01:00:00 13.7 3 Norte 14 Nordeste 0 -- -- 79
2017-11-17 00:00:00 13.8 8 Nordeste 15 Nordeste 0 -- -- 78
2017-11-16 23:00:00 13.8 6 Nordeste 12 Nordeste 0 -- -- 78
2017-11-16 22:00:00 14 3 Norte 9 Nordeste 0 -- -- 77
2017-11-16 21:00:00 14.1 3 Norte 8 Nordeste 0 -- -- 77
2017-11-16 20:00:00 14.4 2 Norte 6 Norte 0 -- -- 76
2017-11-16 19:00:00 14.9 0 Calma 5 Sur 0 -- -- 73
2017-11-16 18:00:00 16.8 3 Sur 7 Sudoeste 0 -- -- 66
2017-11-16 17:00:00 17.6 4 Sur 9 Sur 0 -- -- 63
2017-11-16 16:00:00 18.1 4 Sur 11 Sur 0 -- -- 63
2017-11-16 15:00:00 19 5 Sudeste 12 Sudeste 0 -- -- 61
2017-11-16 14:00:00 20.7 6 Sudeste 13 Sudeste 0 -- -- 56
2017-11-16 13:00:00 20.5 6 Sudeste 13 Sudeste 0 -- -- 56
2017-11-16 12:00:00 20 6 Sudeste 11 Este 0 -- -- 55
2017-11-16 11:00:00 19.9 4 Este 8 Este 0 -- -- 57
2017-11-16 10:00:00 17 4 Este 8 Este 0 -- -- 67
2017-11-16 09:00:00 13.6 2 Noroeste 6 Noroeste 0 -- -- 73
2017-11-16 08:00:00 12.3 3 Noroeste 6 Noroeste 0 -- -- 72
2017-11-16 07:00:00 12.3 3 Noroeste 6 Noroeste 0 -- -- 70
2017-11-16 06:00:00 12.5 3 Noroeste 8 Nordeste 0 -- -- 69
2017-11-16 05:00:00 13 2 Norte 8 Norte 0 -- -- 71
2017-11-16 04:00:00 13.2 3 Norte 8 Nordeste 0 -- -- 72
2017-11-16 03:00:00 13.3 2 Noroeste 10 Nordeste 0 -- -- 72
2017-11-16 02:00:00 13.5 3 Norte 11 Nordeste 0 -- -- 72
2017-11-16 01:00:00 13.5 3 Norte 13 Nordeste 0 -- -- 73
2017-11-16 00:00:00 13.7 5 Norte 12 Nordeste 0 -- -- 73
2017-11-15 23:00:00 13.9 2 Norte 6 Nordeste 0 -- -- 74
2017-11-15 22:00:00 14.3 4 Nordeste 11 Nordeste 0 -- -- 74
2017-11-15 21:00:00 14.5 6 Nordeste 12 Nordeste 0 -- -- 74
2017-11-15 20:00:00 15.2 4 Nordeste 14 Este 0 -- -- 71
2017-11-15 19:00:00 16.1 9 Este 15 Este 0 -- -- 68
2017-11-15 18:00:00 16.9 9 Este 17 Nordeste 0 -- -- 66
2017-11-15 17:00:00 17.3 10 Este 24 Este 0 -- -- 64
2017-11-15 16:00:00 17.8 15 Este 28 Este 0 -- -- 61
2017-11-15 15:00:00 18.3 16 Este 30 Este 0 -- -- 61
2017-11-15 14:00:00 19 18 Este 33 Este 0 -- -- 58
2017-11-15 13:00:00 19 23 Este 39 Este 0 -- -- 58
2017-11-15 12:00:00 18.9 25 Este 40 Este 0 -- -- 57
2017-11-15 11:00:00 18.8 24 Este 38 Este 0 -- -- 55
2017-11-15 10:00:00 17.9 19 Nordeste 34 Nordeste 0 -- -- 57
2017-11-15 09:00:00 15.7 9 Nordeste 21 Nordeste 0 -- -- 64
2017-11-15 08:00:00 14.8 10 Nordeste 25 Nordeste 0 -- -- 67
2017-11-15 07:00:00 15.3 13 Nordeste 32 Este 0 -- -- 68
2017-11-15 06:00:00 15.9 17 Nordeste 39 Este 0 -- -- 71
2017-11-15 05:00:00 16 12 Nordeste 45 Este 0 -- -- 71
2017-11-15 04:00:00 16.4 29 Este 45 Este 0 -- -- 73
2017-11-15 03:00:00 16.6 29 Este 48 Este 0 -- -- 72
2017-11-15 02:00:00 16.1 10 Nordeste 27 Este 0 -- -- 71
2017-11-15 01:00:00 15.8 10 Nordeste 22 Nordeste 0 -- -- 71
2017-11-15 00:00:00 15.1 10 Nordeste 22 Nordeste 0 -- -- 73
2017-11-14 23:00:00 15.3 9 Nordeste 27 Este 0 -- -- 73
2017-11-14 22:00:00 16.3 17 Nordeste 29 Este 0 -- -- 73
2017-11-14 21:00:00 16.4 8 Nordeste 20 Este 0 -- -- 70
2017-11-14 20:00:00 15.7 7 Nordeste 15 Nordeste 0 -- -- 68
2017-11-14 19:00:00 16 6 Nordeste 21 Este 0 -- -- 70
2017-11-14 18:00:00 16.8 13 Este 19 Este 0 -- -- 65
2017-11-14 17:00:00 17.4 15 Este 23 Este 0 -- -- 59
2017-11-14 16:00:00 18.6 13 Este 21 Este 0 -- -- 55
2017-11-14 15:00:00 19.7 7 Este 13 Este 0 -- -- 55
2017-11-14 14:00:00 21.1 5 Sudeste 14 Sudeste 0 -- -- 48
2017-11-14 13:00:00 21.1 9 Sudeste 17 Este 0 -- -- 52
2017-11-14 12:00:00 20.7 8 Este 14 Este 0 -- -- 51
2017-11-14 11:00:00 19.8 4 Este 8 Sudeste 0 -- -- 52
2017-11-14 10:00:00 16.7 2 Sur 7 Este 0 -- -- 57
2017-11-14 09:00:00 13 3 Este 5 Este 0 -- -- 64
2017-11-14 08:00:00 11.1 3 Noroeste 5 Norte 0 -- -- 63
2017-11-14 07:00:00 11.5 3 Nordeste 5 Nordeste 0 -- -- 66
2017-11-14 06:00:00 12.5 2 Sudoeste 8 Oeste 0 -- -- 63
2017-11-14 05:00:00 12.9 2 Oeste 6 Oeste 0 -- -- 65
2017-11-14 04:00:00 14.8 2 Este 12 Oeste 0 -- -- 66
2017-11-14 03:00:00 16 6 Oeste 15 Noroeste 0 -- -- 66
2017-11-14 02:00:00 15.9 6 Oeste 11 Noroeste 0 -- -- 66
2017-11-14 01:00:00 16.3 7 Oeste 13 Sudoeste 0 -- -- 60
2017-11-14 00:00:00 15.5 4 Noroeste 12 Nordeste 0 -- -- 50
2017-11-13 23:00:00 17.1 6 Noroeste 10 Oeste 0 -- -- 38
2017-11-13 22:00:00 17.6 6 Este 15 Norte 0 -- -- 49
2017-11-13 21:00:00 19.2 5 Nordeste 24 Nordeste 0 -- -- 31
2017-11-13 20:00:00 19.9 8 Nordeste 23 Nordeste 0 -- -- 29
2017-11-13 19:00:00 20.6 6 Nordeste 23 Nordeste 0 -- -- 26
2017-11-13 18:00:00 21.4 8 Oeste 33 Oeste 0 -- -- 31
2017-11-13 17:00:00 22.3 17 Oeste 53 Oeste 0 -- -- 33
2017-11-13 16:00:00 22.7 25 Oeste 50 Oeste 0 -- -- 31
2017-11-13 15:00:00 23.3 22 Oeste 46 Oeste 0 -- -- 28
2017-11-13 14:00:00 23.4 23 Sudoeste 41 Oeste 0 -- -- 29
2017-11-13 13:00:00 23 19 Sudoeste 32 Sudoeste 0 -- -- 31
2017-11-13 12:00:00 22.1 15 Sudoeste 26 Oeste 0 -- -- 36
2017-11-13 11:00:00 20.5 16 Oeste 27 Oeste 0 -- -- 35
2017-11-13 10:00:00 18.4 2 Sudeste 9 Sudoeste 0 -- -- 45
2017-11-13 09:00:00 15.2 5 Noroeste 13 Sudoeste 0 -- -- 41
2017-11-13 08:00:00 13 4 Norte 8 Nordeste 0 -- -- 51
2017-11-13 07:00:00 13.8 2 Norte 10 Nordeste 0 -- -- 52
2017-11-13 06:00:00 14.6 5 Norte 15 Este 0 -- -- 44
2017-11-13 05:00:00 14.4 6 Oeste 13 Noroeste 0 -- -- 52
2017-11-13 04:00:00 14.6 3 Este 12 Nordeste 0 -- -- 45
2017-11-13 03:00:00 14.3 5 Nordeste 10 Nordeste 0 -- -- 49
2017-11-13 02:00:00 16.3 3 Noroeste 10 Norte 0 -- -- 42
2017-11-13 01:00:00 16.3 4 Norte 10 Sur 0 -- -- 43
2017-11-13 00:00:00 15.8 3 Nordeste 15 Oeste 0 -- -- 50
2017-11-12 23:00:00 17.4 10 Sudoeste 17 Sudoeste 0 -- -- 48
2017-11-12 22:00:00 17 4 Oeste 12 Oeste 0 -- -- 40
2017-11-12 21:00:00 16.7 4 Sudeste 11 Sudoeste 0 -- -- 46
2017-11-12 20:00:00 16.8 2 Oeste 10 Este 0 -- -- 46
2017-11-12 19:00:00 17.5 3 Oeste 9 Norte 0 -- -- 45
2017-11-12 18:00:00 18.4 4 Norte 11 Nordeste 0 -- -- 46
2017-11-12 17:00:00 19.6 5 Nordeste 12 Nordeste 0 -- -- 47
2017-11-12 16:00:00 19.7 6 Este 13 Este 0 -- -- 54
2017-11-12 15:00:00 20.5 4 Este 9 Sudoeste 0 -- -- 58
2017-11-12 14:00:00 21.1 4 Sudoeste 9 Sudoeste 0 -- -- 52
2017-11-12 13:00:00 21.1 3 Sudeste 8 Sudeste 0 -- -- 45
2017-11-12 12:00:00 20.2 5 Este 9 Sudeste 0 -- -- 54
2017-11-12 11:00:00 19.5 5 Sudeste 9 Sudeste 0 -- -- 64
2017-11-12 10:00:00 16.1 3 Sur 7 Sur 0 -- -- 74
2017-11-12 09:00:00 13.5 0 Calma 3 Oeste 0 -- -- 80
2017-11-12 08:00:00 13.1 0 Calma 8 Norte 0 -- -- 77
2017-11-12 07:00:00 14.2 4 Noroeste 8 Noroeste 0 -- -- 73
2017-11-12 06:00:00 14.1 4 Noroeste 8 Noroeste 0 -- -- 67
2017-11-12 05:00:00 14.3 5 Norte 8 Noroeste 0 -- -- 64
2017-11-12 04:00:00 13.2 3 Noroeste 6 Noroeste 0 -- -- 67
2017-11-12 03:00:00 13.7 3 Noroeste 8 Noroeste 0 -- -- 64
2017-11-12 02:00:00 13.1 2 Noroeste 6 Nordeste 0 -- -- 68
2017-11-12 01:00:00 12.7 3 Noroeste 6 Nordeste 0 -- -- 70
2017-11-12 00:00:00 13.8 0 Calma 5 Este 0 -- -- 70
2017-11-11 23:00:00 15.7 2 Oeste 9 Noroeste 0 -- -- 61
2017-11-11 22:00:00 16.3 5 Norte 9 Oeste 0 -- -- 54
2017-11-11 21:00:00 15 2 Noroeste 8 Norte 0 -- -- 59
2017-11-11 20:00:00 15.6 3 Noroeste 8 Noroeste 0 -- -- 58
2017-11-11 19:00:00 16 2 Norte 7 Sudoeste 0 -- -- 59
2017-11-11 18:00:00 18.4 0 Calma 12 Oeste 0 -- -- 53
2017-11-11 17:00:00 19.5 6 Oeste 14 Oeste 0 -- -- 48
2017-11-11 16:00:00 19.9 8 Sudoeste 15 Sudoeste 0 -- -- 43
2017-11-11 15:00:00 20.2 5 Sudoeste 11 Oeste 0 -- -- 52
2017-11-11 14:00:00 20.8 7 Sudoeste 15 Sudoeste 0 -- -- 48
2017-11-11 13:00:00 20.5 6 Sudoeste 12 Sudoeste 0 -- -- 50
2017-11-11 12:00:00 19.1 5 Sudoeste 11 Sudoeste 0 -- -- 54
2017-11-11 11:00:00 18 6 Sudoeste 10 Sudoeste 0 -- -- 56
2017-11-11 10:00:00 15.8 3 Sudoeste 7 Sudoeste 0 -- -- 53
2017-11-11 09:00:00 12.7 3 Oeste 6 Oeste 0 -- -- 62
2017-11-11 08:00:00 10.5 3 Sudoeste 5 Norte 0 -- -- 63
2017-11-11 07:00:00 10.5 3 Oeste 5 Oeste 0 -- -- 66
2017-11-11 06:00:00 11.1 0 Calma 8 Noroeste 0 -- -- 62
2017-11-11 05:00:00 12 0 Calma 7 Norte 0 -- -- 62
2017-11-11 04:00:00 12 2 Nordeste 12 Oeste 0 -- -- 62
2017-11-11 03:00:00 12.3 3 Oeste 16 Sur 0 -- -- 60
2017-11-11 02:00:00 13.1 2 Oeste 8 Noroeste 0 -- -- 56
2017-11-11 01:00:00 13.4 2 Norte 8 Norte 0 -- -- 60
2017-11-11 00:00:00 13.3 3 Noroeste 7 Noroeste 0 -- -- 61
2017-11-10 23:00:00 13 3 Oeste 7 Norte 0 -- -- 59
2017-11-10 22:00:00 13.6 3 Nordeste 9 Noroeste 0 -- -- 55
2017-11-10 21:00:00 15.2 7 Noroeste 12 Noroeste 0 -- -- 47
2017-11-10 20:00:00 14.8 3 Noroeste 8 Noroeste 0 -- -- 50
2017-11-10 19:00:00 15.5 4 Oeste 12 Oeste 0 -- -- 50
2017-11-10 18:00:00 17.1 6 Sudoeste 11 Oeste 0 -- -- 48
2017-11-10 17:00:00 18.4 6 Sudoeste 11 Sudoeste 0 -- -- 41
2017-11-10 16:00:00 18.5 5 Sur 15 Sur 0 -- -- 42
2017-11-10 15:00:00 19.2 6 Sur 14 Sudeste 0 -- -- 37
2017-11-10 14:00:00 21 6 Sur 13 Sur 0 -- -- 32
2017-11-10 13:00:00 20.8 5 Sudeste 17 Sur 0 -- -- 33
2017-11-10 12:00:00 20.2 9 Sur 21 Sur 0 -- -- 34
2017-11-10 11:00:00 18.1 7 Oeste 15 Sudoeste 0 -- -- 30
2017-11-10 10:00:00 15.8 4 Sudoeste 8 Sudoeste 0 -- -- 44
2017-11-10 09:00:00 13.3 6 Oeste 14 Oeste 0 -- -- 56
2017-11-10 08:00:00 11.1 2 Norte 17 Este 0 -- -- 58
2017-11-10 07:00:00 12 3 Noroeste 7 Oeste 0 -- -- 46
2017-11-10 06:00:00 12.2 3 Noroeste 10 Nordeste 0 -- -- 49
2017-11-10 05:00:00 12.4 3 Oeste 9 Noroeste 0 -- -- 50
2017-11-10 04:00:00 12.9 3 Noroeste 7 Noroeste 0 -- -- 48
2017-11-10 03:00:00 13 3 Noroeste 7 Nordeste 0 -- -- 45
2017-11-10 02:00:00 13.6 2 Noroeste 10 Nordeste 0 -- -- 44
2017-11-10 01:00:00 13.7 2 Noroeste 7 Oeste 0 -- -- 51
2017-11-10 00:00:00 13.9 3 Noroeste 8 Noroeste 0 -- -- 54
2017-11-09 23:00:00 13.3 2 Nordeste 6 Este 0 -- -- 63
2017-11-09 22:00:00 14.4 3 Norte 9 Nordeste 0 -- -- 60
2017-11-09 21:00:00 15.1 3 Norte 13 Nordeste 0 -- -- 60
2017-11-09 20:00:00 16 6 Nordeste 15 Nordeste 0 -- -- 59
2017-11-09 19:00:00 16.7 8 Nordeste 18 Nordeste 0 -- -- 61
2017-11-09 18:00:00 17.4 11 Nordeste 25 Este 0 -- -- 62
2017-11-09 17:00:00 18.2 15 Este 26 Este 0 -- -- 64
2017-11-09 16:00:00 18.4 18 Este 33 Este 0 -- -- 61
2017-11-09 15:00:00 19.4 22 Este 36 Este 0 -- -- 60
2017-11-09 14:00:00 20.2 17 Este 31 Este 0 -- -- 58
2017-11-09 13:00:00 20 16 Este 32 Este 0 -- -- 49
2017-11-09 12:00:00 20 17 Este 29 Este 0 -- -- 47
2017-11-09 11:00:00 19.8 8 Este 14 Este 0 -- -- 45
2017-11-09 10:00:00 17.5 6 Nordeste 10 Este 0 -- -- 58
2017-11-09 09:00:00 14.4 3 Noroeste 9 Noroeste 0 -- -- 62
2017-11-09 08:00:00 14.4 6 Noroeste 9 Noroeste 0 -- -- 55
2017-11-09 07:00:00 13.7 2 Sudoeste 9 Noroeste 0 -- -- 63
2017-11-09 06:00:00 11.8 4 Este 8 Este 0 -- -- 75
2017-11-09 05:00:00 12.1 2 Noroeste 5 Este 0 -- -- 78
2017-11-09 04:00:00 12.6 3 Este 9 Norte 0 -- -- 75
2017-11-09 03:00:00 12 3 Noroeste 8 Nordeste 0 -- -- 78
2017-11-09 02:00:00 13 2 Norte 6 Sudoeste 0 -- -- 82
2017-11-09 01:00:00 13.6 3 Noroeste 7 Noroeste 0 -- -- 82
2017-11-09 00:00:00 14.1 4 Noroeste 6 Oeste 0 -- -- 81
2017-11-08 23:00:00 13.6 2 Oeste 8 Nordeste 0 -- -- 81
2017-11-08 22:00:00 14.2 3 Norte 6 Noroeste 0 -- -- 81
2017-11-08 21:00:00 14.8 2 Sudoeste 5 Noroeste 0 -- -- 80
2017-11-08 20:00:00 15.5 3 Oeste 6 Oeste 0 -- -- 78
2017-11-08 19:00:00 16.8 6 Sudoeste 10 Sudoeste 0 -- -- 76
2017-11-08 18:00:00 18.1 5 Sudoeste 9 Oeste 0 -- -- 70
2017-11-08 17:00:00 18.8 4 Sudoeste 7 Sudoeste 0 -- -- 68
2017-11-08 16:00:00 19.5 4 Sudoeste 8 Sur 0 -- -- 64
2017-11-08 15:00:00 20.4 4 Sur 9 Sudoeste 0 -- -- 59
2017-11-08 14:00:00 22 4 Sur 9 Sudoeste 0 -- -- 53
2017-11-08 13:00:00 21.9 5 Sur 9 Sur 0 -- -- 55
2017-11-08 12:00:00 20.8 4 Sur 8 Sur 0 -- -- 56
2017-11-08 11:00:00 19.2 3 Sur 8 Sur 0 -- -- 65
2017-11-08 10:00:00 16.8 2 Sudeste 5 Sudeste 0 -- -- 81
2017-11-08 09:00:00 13.4 3 Sudoeste 4 Norte 0 -- -- 85
2017-11-08 08:00:00 12.4 2 Noroeste 6 Noroeste 0 -- -- 85
2017-11-08 07:00:00 12.2 0 Calma 4 Noroeste 0 -- -- 85
2017-11-08 06:00:00 12.3 3 Noroeste 4 Norte 0 -- -- 85
2017-11-08 05:00:00 12.3 2 Oeste 4 Noroeste 0 -- -- 84
2017-11-08 04:00:00 12.6 0 Calma 3 Oeste 0 -- -- 84
2017-11-08 03:00:00 13.2 2 Nordeste 6 Noroeste 0 -- -- 83
2017-11-08 02:00:00 12.9 3 Noroeste 4 Noroeste 0.2 -- -- 83
2017-11-08 01:00:00 13.6 0 Calma 4 Sur 0 -- -- 82
2017-11-08 00:00:00 13.8 3 Oeste 4 Oeste 0.4 -- -- 80
2017-11-07 23:00:00 14.2 0 Calma 6 Norte 0.4 -- -- 77
2017-11-07 22:00:00 15.3 2 Noroeste 13 Oeste 0.6 -- -- 75
2017-11-07 21:00:00 15.4 5 Oeste 8 Oeste 0.8 -- -- 78
2017-11-07 20:00:00 15.8 5 Oeste 9 Oeste 1.2 -- -- 77
2017-11-07 19:00:00 16.1 3 Sudoeste 4 Sudoeste 1.8 -- -- 73
2017-11-07 18:00:00 17.8 3 Sudeste 9 Sudeste 2.4 -- -- 69
2017-11-07 17:00:00 18.5 4 Sudeste 9 Sudeste 1.2 -- -- 65
2017-11-07 16:00:00 19.1 6 Sudeste 10 Sudeste 0.6 -- -- 62
2017-11-07 15:00:00 20.7 4 Sudeste 10 Sudeste 0.2 -- -- 55
2017-11-07 14:00:00 22.5 5 Sudeste 12 Sudeste 0.4 -- -- 50
2017-11-07 13:00:00 21.7 6 Sudeste 13 Sudeste 0.2 -- -- 45
2017-11-07 12:00:00 21.7 8 Este 14 Este 0.2 -- -- 49
2017-11-07 11:00:00 21.5 7 Este 12 Este 0.2 -- -- 51
2017-11-07 10:00:00 18.9 7 Este 12 Nordeste 0.2 -- -- 53
2017-11-07 09:00:00 15.4 2 Norte 7 Oeste 0.2 -- -- 65
2017-11-07 08:00:00 13.9 2 Noroeste 7 Oeste 0.2 -- -- 63
2017-11-07 07:00:00 14 2 Oeste 7 Oeste 0.2 -- -- 60
2017-11-07 06:00:00 14 3 Noroeste 9 Nordeste 0 -- -- 60
2017-11-07 05:00:00 14.1 3 Noroeste 8 Oeste 0 -- -- 64
2017-11-07 04:00:00 14.3 2 Noroeste 9 Nordeste 0.2 -- -- 67
2017-11-07 03:00:00 14.5 2 Noroeste 7 Oeste 0.2 -- -- 69
2017-11-07 02:00:00 14.6 3 Noroeste 6 Noroeste 0 -- -- 68
2017-11-07 01:00:00 14.8 3 Noroeste 7 Noroeste 0.4 -- -- 68
2017-11-07 00:00:00 15.1 3 Noroeste 7 Oeste 0.4 -- -- 68
2017-11-06 23:00:00 15.7 2 Noroeste 7 Noroeste 0.6 -- -- 66
2017-11-06 22:00:00 15.9 3 Noroeste 8 Oeste 0.8 -- -- 68
2017-11-06 21:00:00 16.1 2 Noroeste 12 Nordeste 0.8 -- -- 69
2017-11-06 20:00:00 16.6 7 Nordeste 13 Nordeste 0.8 -- -- 69
2017-11-06 19:00:00 17.1 6 Nordeste 14 Este 1.2 -- -- 67
2017-11-06 18:00:00 18.2 6 Nordeste 21 Este 0.6 -- -- 63
2017-11-06 17:00:00 18.8 14 Este 24 Este 0 -- -- 64
2017-11-06 16:00:00 20 15 Este 27 Este 0 -- -- 59
2017-11-06 15:00:00 20.3 18 Este 34 Este 0.2 -- -- 61
2017-11-06 14:00:00 21.1 21 Este 35 Este 0 -- -- 63
2017-11-06 13:00:00 20.8 23 Este 38 Este 0 -- -- 63
2017-11-06 12:00:00 20.4 23 Este 40 Este 0.2 -- -- 62
2017-11-06 11:00:00 20.8 25 Este 36 Este 0 -- -- 61
2017-11-06 10:00:00 19.8 14 Este 23 Nordeste 0 -- -- 54
2017-11-06 09:00:00 15.3 7 Nordeste 15 Nordeste 0.2 -- -- 67
2017-11-06 08:00:00 12.9 2 Este 5 Oeste 0 -- -- 75
2017-11-06 07:00:00 13.2 3 Norte 8 Nordeste 0 -- -- 74
2017-11-06 06:00:00 12.8 3 Nordeste 5 Norte 0 -- -- 73
2017-11-06 05:00:00 13.6 0 Calma 8 Noroeste 0 -- -- 72
2017-11-06 04:00:00 13.7 3 Oeste 6 Oeste 0 -- -- 73
2017-11-06 03:00:00 14.4 2 Noroeste 8 Noroeste 0 -- -- 71
2017-11-06 02:00:00 14.5 0 Calma 7 Oeste 0 -- -- 67
2017-11-06 01:00:00 15.1 3 Norte 5 Norte 0.2 -- -- 71
2017-11-06 00:00:00 15 3 Oeste 7 Noroeste 0 -- -- 65
2017-11-05 23:00:00 15.6 0 Calma 13 Este 0 -- -- 67
2017-11-05 22:00:00 16.6 3 Nordeste 7 Noroeste 0 -- -- 62
2017-11-05 21:00:00 17.8 3 Noroeste 7 Noroeste 0 -- -- 58
2017-11-05 20:00:00 18 2 Oeste 12 Nordeste 0 -- -- 57
2017-11-05 19:00:00 19.4 7 Nordeste 19 Este 0 -- -- 51
2017-11-05 18:00:00 20.8 9 Nordeste 16 Este 0.2 -- -- 48
2017-11-05 17:00:00 21.1 5 Nordeste 15 Este 0 -- -- 59
2017-11-05 16:00:00 21.8 7 Este 16 Este 0 -- -- 61
2017-11-05 15:00:00 24.1 9 Sudeste 33 Oeste 0 -- -- 48
2017-11-05 14:00:00 25.4 9 Oeste 27 Oeste 0 -- -- 33
2017-11-05 13:00:00 24.3 11 Oeste 29 Sudoeste 0 -- -- 37
2017-11-05 12:00:00 22.7 15 Oeste 30 Sudoeste 0.2 -- -- 46
2017-11-05 11:00:00 21.3 7 Sudoeste 12 Sudoeste 0 -- -- 48
2017-11-05 10:00:00 18.8 2 Sudoeste 5 Sur 0 -- -- 61
2017-11-05 09:00:00 16.6 4 Este 7 Norte 0 -- -- 70
2017-11-05 08:00:00 15.1 5 Noroeste 9 Noroeste 0 -- -- 69
2017-11-05 07:00:00 15.5 4 Nordeste 13 Sudeste 0 -- -- 69
2017-11-05 06:00:00 16.2 4 Noroeste 20 Este 0 -- -- 64
2017-11-05 05:00:00 15.3 7 Sudeste 13 Sudeste 0 -- -- 71
2017-11-05 04:00:00 15.6 4 Oeste 14 Oeste 0 -- -- 71
2017-11-05 03:00:00 16.2 4 Oeste 15 Sudoeste 0.2 -- -- 70
2017-11-05 02:00:00 16.5 5 Sudoeste 14 Oeste 0 -- -- 68
2017-11-05 01:00:00 17.9 9 Oeste 22 Oeste 0 -- -- 63
2017-11-05 00:00:00 17.7 10 Oeste 26 Oeste 0 -- -- 72
2017-11-04 23:00:00 17.5 10 Oeste 20 Oeste 0 -- -- 72
2017-11-04 22:00:00 17.4 4 Oeste 20 Oeste 0 -- -- 71
2017-11-04 21:00:00 17.8 8 Sudoeste 19 Oeste 0 -- -- 67
2017-11-04 20:00:00 18.5 10 Oeste 29 Oeste 0 -- -- 64
2017-11-04 19:00:00 19.3 15 Oeste 30 Oeste 0 -- -- 58
2017-11-04 18:00:00 20.5 16 Oeste 34 Oeste 0.2 -- -- 53
2017-11-04 17:00:00 21.4 14 Oeste 44 Sudoeste 0 -- -- 51
2017-11-04 16:00:00 21.8 18 Oeste 43 Sudoeste 0.2 -- -- 51
2017-11-04 15:00:00 22 13 Oeste 37 Oeste 0.2 -- -- 53
2017-11-04 14:00:00 21.8 18 Oeste 33 Sudoeste 0 -- -- 60
2017-11-04 13:00:00 20.6 12 Sudoeste 27 Sudoeste 0.2 -- -- 78
2017-11-04 12:00:00 18.4 15 Sudoeste 28 Sur 0 -- -- 84
2017-11-04 11:00:00 17.8 9 Sudoeste 29 Sudoeste 0 -- -- 86
2017-11-04 10:00:00 16.8 16 Sudoeste 27 Sudoeste 0 -- -- 85
2017-11-04 09:00:00 17 5 Oeste 14 Oeste 0 -- -- 85
2017-11-04 08:00:00 16.8 8 Oeste 20 Noroeste 0 -- -- 84
2017-11-04 07:00:00 17.1 7 Sudoeste 24 Noroeste 0.2 -- -- 84
2017-11-04 06:00:00 16.6 7 Oeste 17 Oeste 0 -- -- 86
2017-11-04 05:00:00 16.7 7 Oeste 17 Oeste 0 -- -- 86
2017-11-04 04:00:00 16.7 0 Calma 4 Nordeste 0 -- -- 86
2017-11-04 03:00:00 16.8 2 Este 6 Sudeste 0 -- -- 86
2017-11-04 02:00:00 16.8 3 Sur 10 Nordeste 0 -- -- 85
2017-11-04 01:00:00 16.7 3 Nordeste 8 Oeste 0.2 -- -- 85
2017-11-04 00:00:00 17.1 6 Oeste 16 Oeste 0 -- -- 84
2017-11-03 23:00:00 17.5 8 Sudoeste 19 Oeste 0 -- -- 84
2017-11-03 22:00:00 17.5 6 Oeste 30 Oeste 0.2 -- -- 83
2017-11-03 21:00:00 18.2 9 Oeste 19 Oeste 0 -- -- 80
2017-11-03 20:00:00 19 3 Oeste 7 Este 0 -- -- 80
2017-11-03 19:00:00 19.3 2 Nordeste 5 Este 0 -- -- 78
2017-11-03 18:00:00 20 3 Sudeste 7 Este 0 -- -- 75
2017-11-03 17:00:00 20.7 3 Sur 6 Este 0 -- -- 72
2017-11-03 16:00:00 21.2 3 Sur 7 Sudeste 0 -- -- 70
2017-11-03 15:00:00 22 3 Sudeste 9 Sudeste 0 -- -- 66
2017-11-03 14:00:00 21.5 4 Este 9 Sudeste 0 -- -- 67
2017-11-03 13:00:00 21.7 6 Este 10 Este 0 -- -- 67
2017-11-03 12:00:00 21 4 Este 14 Este 0 -- -- 70
2017-11-03 11:00:00 20.6 9 Este 13 Este 0 -- -- 71
2017-11-03 10:00:00 19.6 6 Nordeste 12 Nordeste 0 -- -- 72
2017-11-03 09:00:00 18.4 5 Nordeste 13 Nordeste 0 -- -- 74
2017-11-03 08:00:00 18.2 6 Nordeste 13 Nordeste 0 -- -- 72
2017-11-03 07:00:00 18.6 5 Nordeste 12 Nordeste 0 -- -- 72
2017-11-03 06:00:00 18.3 5 Nordeste 15 Nordeste 0 -- -- 72
2017-11-03 05:00:00 18.5 4 Nordeste 14 Nordeste 0 -- -- 70
2017-11-03 04:00:00 18.9 8 Nordeste 17 Nordeste 0 -- -- 69
2017-11-03 03:00:00 18.9 7 Nordeste 16 Nordeste 0 -- -- 71
2017-11-03 02:00:00 18.9 6 Nordeste 18 Nordeste 0 -- -- 73
2017-11-03 01:00:00 18.8 8 Nordeste 22 Nordeste 0 -- -- 76
2017-11-03 00:00:00 18.7 7 Nordeste 18 Nordeste 0 -- -- 76
2017-11-02 23:00:00 18.8 6 Nordeste 16 Este 0 -- -- 76
2017-11-02 22:00:00 18.7 6 Nordeste 18 Este 0 -- -- 77
2017-11-02 21:00:00 19.2 9 Nordeste 17 Este 0 -- -- 76
2017-11-02 20:00:00 19.3 11 Nordeste 21 Nordeste 0 -- -- 75
2017-11-02 19:00:00 19.4 9 Nordeste 21 Nordeste 0 -- -- 74
2017-11-02 18:00:00 19.7 11 Nordeste 21 Nordeste 0 -- -- 73
2017-11-02 17:00:00 20.4 12 Nordeste 22 Este 0 -- -- 72
2017-11-02 16:00:00 20.8 14 Nordeste 24 Este 0 -- -- 70
2017-11-02 15:00:00 21.6 15 Nordeste 26 Nordeste 0 -- -- 67
2017-11-02 14:00:00 22.9 17 Nordeste 26 Este 0 -- -- 64
2017-11-02 13:00:00 22.3 17 Este 27 Nordeste 0 -- -- 66
2017-11-02 12:00:00 21.6 18 Nordeste 31 Nordeste 0 -- -- 69
2017-11-02 11:00:00 20.9 18 Nordeste 33 Este 0 -- -- 72
2017-11-02 10:00:00 20.4 18 Nordeste 31 Nordeste 0 -- -- 74
2017-11-02 09:00:00 19.5 11 Nordeste 24 Nordeste 0 -- -- 76
2017-11-02 08:00:00 19 8 Nordeste 28 Este 0 -- -- 77
2017-11-02 07:00:00 19 9 Nordeste 22 Este 0 -- -- 76
2017-11-02 06:00:00 18.8 10 Nordeste 22 Nordeste 0 -- -- 77
2017-11-02 05:00:00 18.8 9 Nordeste 20 Este 0 -- -- 77
2017-11-02 04:00:00 18.6 8 Nordeste 21 Nordeste 0 -- -- 76
2017-11-02 03:00:00 18.9 8 Nordeste 25 Nordeste 0 -- -- 74
2017-11-02 02:00:00 19 12 Nordeste 23 Nordeste 0 -- -- 73
2017-11-02 01:00:00 19.2 11 Nordeste 23 Nordeste 0 -- -- 70
2017-11-02 00:00:00 19.3 11 Nordeste 23 Nordeste 0 -- -- 69
2017-11-01 23:00:00 19.3 10 Nordeste 24 Nordeste 0 -- -- 68
2017-11-01 22:00:00 19 10 Nordeste 24 Norte 0 -- -- 69
2017-11-01 21:00:00 19.1 10 Nordeste 22 Nordeste 0 -- -- 69
2017-11-01 20:00:00 19.1 9 Nordeste 22 Nordeste 0 -- -- 70
2017-11-01 19:00:00 19.4 10 Nordeste 24 Este 0 -- -- 72
2017-11-01 18:00:00 19.7 9 Nordeste 21 Este 0 -- -- 70
2017-11-01 17:00:00 20.6 15 Este 26 Nordeste 0 -- -- 71
2017-11-01 16:00:00 21.5 18 Nordeste 29 Nordeste 0 -- -- 66
2017-11-01 15:00:00 22.3 18 Nordeste 28 Este 0 -- -- 64
2017-11-01 14:00:00 22.5 20 Este 28 Este 0 -- -- 64
2017-11-01 13:00:00 22.5 18 Este 30 Este 0 -- -- 65
2017-11-01 12:00:00 22.3 19 Este 31 Nordeste 0 -- -- 65
2017-11-01 11:00:00 21.9 20 Este 35 Este 0 -- -- 66
2017-11-01 10:00:00 21.2 19 Nordeste 33 Este 0 -- -- 67
2017-11-01 09:00:00 19.4 10 Nordeste 27 Nordeste 0 -- -- 71
2017-11-01 08:00:00 18.3 12 Nordeste 24 Nordeste 0 -- -- 72
2017-11-01 07:00:00 18.3 10 Nordeste 28 Nordeste 0 -- -- 73
2017-11-01 06:00:00 18.5 12 Nordeste 31 Nordeste 0 -- -- 73
2017-11-01 05:00:00 18.4 13 Nordeste 23 Nordeste 0 -- -- 75
2017-11-01 04:00:00 18.5 10 Nordeste 23 Nordeste 0 -- -- 76
2017-11-01 03:00:00 18.7 10 Nordeste 23 Nordeste 0 -- -- 75
2017-11-01 02:00:00 18.8 11 Nordeste 26 Nordeste 0 -- -- 72
2017-11-01 01:00:00 19.1 11 Nordeste 26 Nordeste 0 -- -- 66
2017-11-01 00:00:00 18.7 11 Nordeste 22 Nordeste 0 -- -- 65
2017-10-31 23:00:00 18.8 11 Nordeste 24 Nordeste 0 -- -- 67
2017-10-31 22:00:00 18.8 11 Nordeste 21 Nordeste 0 -- -- 71
2017-10-31 21:00:00 18.7 10 Nordeste 21 Nordeste 0 -- -- 73
2017-10-31 20:00:00 18.9 9 Nordeste 27 Nordeste 0 -- -- 75
2017-10-31 19:00:00 18.8 8 Nordeste 21 Este 0 -- -- 77
2017-10-31 18:00:00 19.8 17 Este 26 Nordeste 0 -- -- 74
2017-10-31 17:00:00 21 17 Nordeste 28 Nordeste 0 -- -- 67
2017-10-31 16:00:00 21.7 18 Nordeste 30 Este 0 -- -- 64
2017-10-31 15:00:00 22.2 18 Este 30 Nordeste 0 -- -- 65
2017-10-31 14:00:00 23.2 18 Este 30 Nordeste 0 -- -- 62
2017-10-31 13:00:00 21.6 18 Este 28 Este 0 -- -- 67
2017-10-31 12:00:00 21.8 18 Este 29 Nordeste 0 -- -- 67
2017-10-31 11:00:00 22.6 18 Este 31 Nordeste 0 -- -- 63
2017-10-31 10:00:00 21.7 15 Nordeste 26 Nordeste 0 -- -- 63
2017-10-31 09:00:00 19.2 11 Nordeste 23 Nordeste 0 -- -- 65
2017-10-31 08:00:00 18.5 10 Nordeste 24 Nordeste 0 -- -- 65
2017-10-31 07:00:00 18 10 Nordeste 27 Nordeste 0 -- -- 65
2017-10-31 06:00:00 18.2 11 Nordeste 23 Nordeste 0 -- -- 68
2017-10-31 05:00:00 17.5 11 Nordeste 24 Nordeste 0 -- -- 74
2017-10-31 04:00:00 17.1 10 Nordeste 20 Nordeste 0 -- -- 74
2017-10-31 03:00:00 16.9 9 Nordeste 18 Nordeste 0 -- -- 77
2017-10-31 02:00:00 17 9 Nordeste 19 Nordeste 0 -- -- 81
2017-10-31 01:00:00 17.5 9 Nordeste 22 Nordeste 0 -- -- 82
2017-10-31 00:00:00 17 7 Nordeste 15 Nordeste 0 -- -- 81
2017-10-30 23:00:00 17.3 7 Nordeste 15 Este 0 -- -- 80
2017-10-30 22:00:00 17.5 8 Nordeste 17 Nordeste 0 -- -- 80
2017-10-30 21:00:00 17.3 6 Nordeste 12 Nordeste 0 -- -- 80
2017-10-30 20:00:00 17.7 4 Nordeste 12 Nordeste 0 -- -- 78
2017-10-30 19:00:00 18.3 6 Nordeste 12 Nordeste 0 -- -- 76
2017-10-30 18:00:00 19.6 8 Este 13 Este 0 -- -- 74
2017-10-30 17:00:00 20.6 9 Este 13 Este 0 -- -- 70
2017-10-30 16:00:00 21.4 8 Este 12 Sudeste 0 -- -- 64
2017-10-30 15:00:00 22.9 6 Sudeste 11 Sudeste 0 -- -- 59
2017-10-30 14:00:00 24 5 Este 13 Este 0 -- -- 58
2017-10-30 13:00:00 23.4 7 Sudeste 12 Sudeste 0 -- -- 60
2017-10-30 12:00:00 22.9 8 Este 12 Este 0 -- -- 60
2017-10-30 11:00:00 22 8 Este 16 Este 0 -- -- 64
2017-10-30 10:00:00 20.4 9 Este 14 Nordeste 0 -- -- 72
2017-10-30 09:00:00 17.4 6 Nordeste 11 Nordeste 0 -- -- 82
2017-10-30 08:00:00 15.2 2 Oeste 5 Noroeste 0 -- -- 79
2017-10-30 07:00:00 15.9 0 Calma 6 Noroeste 0 -- -- 75
2017-10-30 06:00:00 16.3 3 Norte 6 Noroeste 0 -- -- 78
2017-10-30 05:00:00 15.9 2 Noroeste 7 Nordeste 0 -- -- 79
2017-10-30 04:00:00 15.5 0 Calma 4 Oeste 0 -- -- 78
2017-10-30 03:00:00 16.4 0 Calma 10 Nordeste 0 -- -- 76
2017-10-30 02:00:00 17.2 4 Nordeste 13 Nordeste 0 -- -- 73
2017-10-30 01:00:00 17.2 8 Nordeste 14 Nordeste 0 -- -- 74
2017-10-30 00:00:00 17.2 6 Nordeste 14 Nordeste 0 -- -- 76
2017-10-29 23:00:00 17 5 Nordeste 11 Nordeste 0 -- -- 76
2017-10-29 22:00:00 17 4 Nordeste 8 Nordeste 0 -- -- 79
2017-10-29 21:00:00 17.5 3 Norte 6 Nordeste 0 -- -- 79
2017-10-29 20:00:00 18.2 4 Nordeste 7 Este 0 -- -- 79
2017-10-29 19:00:00 19 4 Nordeste 8 Nordeste 0 -- -- 77
2017-10-29 18:00:00 20.2 3 Nordeste 12 Este 0 -- -- 73
2017-10-29 17:00:00 20.8 8 Este 16 Este 0 -- -- 73
2017-10-29 16:00:00 21.3 10 Este 19 Este 0 -- -- 71
2017-10-29 15:00:00 22.7 11 Este 17 Este 0 -- -- 65
2017-10-29 14:00:00 23.3 11 Este 18 Este 0 -- -- 63
2017-10-29 13:00:00 23.4 10 Este 22 Este 0 -- -- 63
2017-10-29 12:00:00 23.1 15 Este 23 Este 0 -- -- 61
2017-10-29 11:00:00 22.8 15 Este 27 Nordeste 0 -- -- 61
2017-10-29 10:00:00 21.5 12 Nordeste 22 Este 0 -- -- 63
2017-10-29 09:00:00 19 9 Nordeste 19 Nordeste 0 -- -- 67
2017-10-29 08:00:00 18.6 9 Nordeste 22 Nordeste 0 -- -- 68
2017-10-29 07:00:00 18.6 10 Nordeste 23 Nordeste 0 -- -- 67
2017-10-29 06:00:00 18.8 10 Nordeste 23 Nordeste 0 -- -- 66
2017-10-29 05:00:00 18.9 11 Nordeste 23 Nordeste 0 -- -- 68
2017-10-29 04:00:00 18.9 12 Nordeste 23 Nordeste 0 -- -- 70
2017-10-29 03:00:00 18.3 10 Nordeste 22 Nordeste 0 -- -- 74
2017-10-29 02:00:00 18.2 11 Nordeste 23 Nordeste 0 -- -- 75
2017-10-29 01:00:00 18.4 9 Nordeste 22 Nordeste 0 -- -- 71
2017-10-29 00:00:00 18.6 9 Nordeste 19 Nordeste 0 -- -- 73
2017-10-28 23:00:00 18.6 9 Nordeste 21 Nordeste 0 -- -- 73
2017-10-28 22:00:00 18.8 8 Nordeste 19 Nordeste 0 -- -- 74
2017-10-28 21:00:00 19.1 6 Nordeste 19 Nordeste 0 -- -- 73
2017-10-28 20:00:00 19.3 8 Nordeste 20 Nordeste 0 -- -- 71
2017-10-28 19:00:00 20.1 14 Este 24 Este 0 -- -- 69
2017-10-28 18:00:00 20.8 14 Este 26 Este 0 -- -- 65
2017-10-28 17:00:00 21.5 14 Este 25 Nordeste 0 -- -- 63
2017-10-28 16:00:00 21.4 16 Este 24 Este 0 -- -- 65
2017-10-28 15:00:00 21 16 Este 25 Este 0 -- -- 68
2017-10-28 14:00:00 20.9 17 Este 31 Este 0 -- -- 68
2017-10-28 13:00:00 18.6 14 Nordeste 27 Este 0 -- -- 83
2017-10-28 12:00:00 16.2 15 Este 27 Este 0 -- -- 88
2017-10-28 11:00:00 16 8 Este 13 Nordeste 0 -- -- 87
2017-10-28 10:00:00 15.8 2 Sudoeste 8 Oeste 0 -- -- 87
2017-10-28 09:00:00 15 3 Oeste 6 Sudoeste 0 -- -- 87
2017-10-28 08:00:00 13.8 0 Calma 12 Sur 0 -- -- 86
2017-10-28 07:00:00 13.5 2 Sudoeste 4 Noroeste 0 -- -- 86
2017-10-28 06:00:00 14 3 Nordeste 4 Nordeste 0 -- -- 86
2017-10-28 05:00:00 14.5 0 Calma 5 Oeste 0 -- -- 86
2017-10-28 04:00:00 14.8 0 Calma 4 Norte 0 -- -- 86
2017-10-28 03:00:00 15 0 Calma 3 Sudoeste 0 -- -- 85
2017-10-28 02:00:00 15.7 0 Calma 2 Oeste 0 -- -- 84
2017-10-28 01:00:00 16.1 0 Calma 5 Noroeste 0 -- -- 84
2017-10-28 00:00:00 16.5 0 Calma 5 Norte 0 -- -- 83
2017-10-27 23:00:00 17.4 3 Noroeste 5 Norte 0 -- -- 83
2017-10-27 22:00:00 17.6 0 Calma 3 Nordeste 0 -- -- 82
2017-10-27 21:00:00 18.2 0 Calma 4 Sudoeste 0 -- -- 79
2017-10-27 20:00:00 19 2 Nordeste 6 Este 0 -- -- 75
2017-10-27 19:00:00 20.6 3 Este 9 Este 0 -- -- 72
2017-10-27 18:00:00 21.4 3 Este 13 Este 0 -- -- 71
2017-10-27 17:00:00 22.1 9 Este 20 Este 0 -- -- 67
2017-10-27 16:00:00 23.4 12 Este 18 Este 0 -- -- 60
2017-10-27 15:00:00 24.4 10 Este 17 Este 0 -- -- 56
2017-10-27 14:00:00 24 13 Este 18 Este 0 -- -- 56
2017-10-27 13:00:00 23.2 15 Este 23 Este 0 -- -- 61
2017-10-27 12:00:00 23 15 Este 26 Este 0 -- -- 60
2017-10-27 11:00:00 21.9 12 Nordeste 22 Este 0 -- -- 64
2017-10-27 10:00:00 19.5 10 Nordeste 18 Este 0 -- -- 65
2017-10-27 09:00:00 17.9 7 Nordeste 18 Nordeste 0 -- -- 66
2017-10-27 08:00:00 18.1 7 Nordeste 19 Nordeste 0 -- -- 73
2017-10-27 07:00:00 18.3 9 Nordeste 17 Nordeste 0 -- -- 69
2017-10-27 06:00:00 18.5 8 Nordeste 17 Nordeste 0 -- -- 62
2017-10-27 05:00:00 18.7 7 Nordeste 15 Este 0 -- -- 57
2017-10-27 04:00:00 19.1 6 Nordeste 18 Nordeste 0 -- -- 51
2017-10-27 03:00:00 19.1 7 Nordeste 18 Este 0 -- -- 46
2017-10-27 02:00:00 19.5 11 Nordeste 23 Nordeste 0 -- -- 50
2017-10-27 01:00:00 19.2 10 Nordeste 21 Nordeste 0 -- -- 58
2017-10-27 00:00:00 19 8 Nordeste 21 Este 0 -- -- 60
2017-10-26 23:00:00 19.1 7 Nordeste 18 Este 0 -- -- 59
2017-10-26 22:00:00 19.4 8 Nordeste 22 Este 0 -- -- 60
2017-10-26 21:00:00 19.8 9 Nordeste 21 Este 0 -- -- 61
2017-10-26 20:00:00 20.2 8 Nordeste 26 Este 0 -- -- 62
2017-10-26 19:00:00 21.1 12 Nordeste 30 Nordeste 0 -- -- 63
2017-10-26 18:00:00 22 17 Este 28 Este 0 -- -- 66
2017-10-26 17:00:00 23.1 13 Este 31 Este 0 -- -- 57
2017-10-26 16:00:00 24.7 15 Este 33 Este 0 -- -- 51
2017-10-26 15:00:00 25.4 14 Nordeste 23 Nordeste 0 -- -- 44
2017-10-26 14:00:00 25.1 11 Nordeste 24 Este 0 -- -- 45
2017-10-26 13:00:00 23.2 16 Este 26 Este 0 -- -- 50
2017-10-26 12:00:00 23.7 16 Este 27 Nordeste 0 -- -- 49
2017-10-26 11:00:00 23.8 18 Este 29 Este 0 -- -- 38
2017-10-26 10:00:00 21.6 10 Nordeste 23 Nordeste 0 -- -- 39
2017-10-26 09:00:00 20.5 12 Nordeste 24 Nordeste 0 -- -- 36
2017-10-26 08:00:00 19.9 10 Nordeste 23 Nordeste 0 -- -- 37
2017-10-26 07:00:00 19.6 12 Nordeste 23 Nordeste 0 -- -- 44
2017-10-26 06:00:00 18 9 Nordeste 18 Norte 0 -- -- 52
2017-10-26 05:00:00 17.6 7 Nordeste 17 Norte 0 -- -- 66
2017-10-26 04:00:00 17.1 8 Nordeste 13 Nordeste 0 -- -- 67
2017-10-26 03:00:00 16.3 5 Nordeste 15 Este 0 -- -- 67
2017-10-26 02:00:00 16.3 5 Nordeste 12 Nordeste 0 -- -- 68
2017-10-26 01:00:00 17.1 6 Nordeste 12 Este 0 -- -- 70
2017-10-26 00:00:00 18 6 Nordeste 14 Nordeste 0 -- -- 78
2017-10-25 23:00:00 18.3 6 Nordeste 18 Nordeste 0 -- -- 77
2017-10-25 22:00:00 18.4 6 Nordeste 15 Nordeste 0 -- -- 78
2017-10-25 21:00:00 18.7 6 Nordeste 15 Nordeste 0 -- -- 78
2017-10-25 20:00:00 19.2 9 Nordeste 18 Este 0 -- -- 77
2017-10-25 19:00:00 20.4 11 Este 19 Este 0 -- -- 71
2017-10-25 18:00:00 21.2 11 Este 20 Este 0 -- -- 67
2017-10-25 17:00:00 21.8 12 Este 18 Este 0 -- -- 65
2017-10-25 16:00:00 23 13 Este 20 Este 0 -- -- 63
2017-10-25 15:00:00 22.9 13 Este 21 Este 0 -- -- 62
2017-10-25 14:00:00 22.6 14 Este 22 Este 0 -- -- 63
2017-10-25 13:00:00 22.4 13 Este 25 Este 0 -- -- 63
2017-10-25 12:00:00 22 17 Este 26 Nordeste 0 -- -- 62
2017-10-25 11:00:00 21.9 12 Nordeste 24 Este 0 -- -- 61
2017-10-25 10:00:00 19.2 9 Nordeste 23 Nordeste 0 -- -- 69
2017-10-25 09:00:00 17.6 9 Nordeste 21 Nordeste 0 -- -- 69
2017-10-25 08:00:00 17.5 10 Nordeste 18 Nordeste 0 -- -- 69
2017-10-25 07:00:00 17.7 9 Nordeste 19 Nordeste 0 -- -- 68
2017-10-25 06:00:00 17.7 9 Nordeste 18 Nordeste 0 -- -- 70
2017-10-25 05:00:00 18.1 7 Nordeste 22 Nordeste 0 -- -- 70
2017-10-25 04:00:00 18.6 11 Nordeste 24 Nordeste 0 -- -- 68
2017-10-25 03:00:00 18.7 12 Nordeste 23 Nordeste 0 -- -- 66
2017-10-25 02:00:00 18.6 11 Nordeste 24 Nordeste 0 -- -- 62
2017-10-25 01:00:00 18.5 11 Nordeste 23 Nordeste 0 -- -- 62
2017-10-25 00:00:00 18.4 9 Nordeste 20 Nordeste 0 -- -- 65